Time;durP1;ratioP1;P1;durP2;ratioP2;P2;SDS_P1;SDS_P2;PMS_P1;PMS_P2;Temp;Humidity;BMP_temperature;BMP_pressure;BME280_temperature;BME280_humidity;BME280_pressure;Samples;Min_cycle;Max_cycle;Signal;HPM_P1;HPM_P2
2021/04/03 00:00:39;;;;;;;17.50;6.23;;;5.90;99.90;;;;;;3569797;39;20860;-77
2021/04/03 00:03:07;;;;;;;15.27;5.60;;;5.90;99.90;;;;;;3558434;39;20460;-77
2021/04/03 00:05:33;;;;;;;14.83;5.57;;;6.00;99.90;;;;;;3573246;39;20441;-77
2021/04/03 00:07:59;;;;;;;9.33;5.23;;;6.00;99.90;;;;;;3574504;39;20532;-77
2021/04/03 00:10:36;;;;;;;15.07;5.70;;;5.90;99.90;;;;;;3568126;39;20495;-77
2021/04/03 00:13:02;;;;;;;12.13;6.53;;;5.90;99.90;;;;;;3571800;39;20436;-77
2021/04/03 00:15:28;;;;;;;14.73;6.33;;;6.00;99.90;;;;;;3565802;39;20482;-77
2021/04/03 00:17:54;;;;;;;18.90;7.27;;;6.00;99.90;;;;;;3566943;39;20325;-76
2021/04/03 00:20:23;;;;;;;16.87;6.87;;;6.10;99.90;;;;;;3580522;39;20355;-77
2021/04/03 00:22:49;;;;;;;17.30;9.03;;;6.10;99.90;;;;;;3579324;39;20233;-77
2021/04/03 00:25:15;;;;;;;15.97;7.83;;;6.10;99.90;;;;;;3582161;39;20480;-77
2021/04/03 00:27:44;;;;;;;18.07;8.97;;;6.10;99.90;;;;;;3562757;39;20253;-77
2021/04/03 00:30:15;;;;;;;18.47;8.43;;;6.10;99.90;;;;;;3570473;39;20429;-77
2021/04/03 00:32:42;;;;;;;14.20;6.80;;;6.10;99.90;;;;;;3561444;39;20418;-76
2021/04/03 00:35:09;;;;;;;14.20;6.30;;;6.10;99.90;;;;;;3574330;39;20453;-77
2021/04/03 00:37:35;;;;;;;13.30;6.10;;;6.20;99.90;;;;;;3576964;39;21185;-77
2021/04/03 00:40:01;;;;;;;13.80;5.37;;;6.20;99.90;;;;;;3565147;39;20559;-77
2021/04/03 00:42:27;;;;;;;11.53;6.20;;;6.20;99.90;;;;;;3579923;39;20226;-77
2021/04/03 00:44:53;;;;;;;19.50;5.57;;;6.10;99.90;;;;;;3568238;39;20464;-77
2021/04/03 00:47:18;;;;;;;14.73;5.23;;;6.10;99.90;;;;;;3565031;39;20339;-77
2021/04/03 00:49:45;;;;;;;18.10;5.33;;;6.10;99.90;;;;;;3576233;39;20248;-76
2021/04/03 00:52:13;;;;;;;16.10;5.77;;;6.10;81.20;;;;;;3568277;39;20242;-76
2021/04/03 00:54:40;;;;;;;13.63;4.63;;;6.00;99.90;;;;;;3574372;39;20459;-77
2021/04/03 00:57:06;;;;;;;14.50;4.50;;;6.00;99.90;;;;;;3575136;39;20578;-77
2021/04/03 00:59:32;;;;;;;14.73;5.03;;;6.00;17.30;;;;;;3565780;39;20839;-76
2021/04/03 01:01:58;;;;;;;12.90;4.17;;;6.00;1.00;;;;;;3573488;39;20456;-77
2021/04/03 01:04:24;;;;;;;6.30;3.70;;;6.00;1.00;;;;;;3556553;39;20476;-77
2021/04/03 01:06:50;;;;;;;7.30;3.27;;;6.00;1.00;;;;;;3560027;39;20241;-77
2021/04/03 01:09:15;;;;;;;8.67;4.60;;;6.00;1.00;;;;;;3572438;39;20648;-76
2021/04/03 01:11:57;;;;;;;18.20;5.77;;;6.10;1.00;;;;;;3563302;39;20453;-76
2021/04/03 01:18:00;;;;;;;12.00;5.07;;;6.00;1.00;;;;;;3578325;39;20809;-78
2021/04/03 01:20:46;;;;;;;9.33;5.23;;;6.00;1.00;;;;;;3570202;39;20449;-78
2021/04/03 01:23:26;;;;;;;23.53;5.20;;;5.90;1.00;;;;;;3557252;40;20547;-79
2021/04/03 01:25:59;;;;;;;15.17;4.37;;;5.90;1.00;;;;;;3570207;40;20444;-78
2021/04/03 01:28:44;;;;;;;15.17;4.03;;;5.90;1.00;;;;;;3568285;39;20414;-77
2021/04/03 01:31:11;;;;;;;7.00;3.43;;;5.90;1.00;;;;;;3570238;40;20443;-78
2021/04/03 01:33:43;;;;;;;8.30;4.10;;;6.00;1.00;;;;;;3577108;39;20472;-78
2021/04/03 01:36:19;;;;;;;13.53;4.10;;;6.00;1.00;;;;;;3568117;39;20543;-78
2021/04/03 01:38:56;;;;;;;10.13;3.87;;;5.90;1.00;;;;;;3564067;39;20417;-77
2021/04/03 01:41:24;;;;;;;6.37;4.07;;;5.90;1.00;;;;;;3555538;40;20707;-79
2021/04/03 01:43:52;;;;;;;12.73;3.20;;;5.80;1.00;;;;;;3563068;40;20879;-78
2021/04/03 01:46:22;;;;;;;17.57;4.00;;;5.70;1.00;;;;;;3572709;39;20526;-79
2021/04/03 01:48:50;;;;;;;16.53;4.67;;;5.80;1.00;;;;;;3561885;39;20472;-79
2021/04/03 01:51:17;;;;;;;14.30;4.13;;;5.80;1.00;;;;;;3562691;39;20455;-78
2021/04/03 01:53:44;;;;;;;14.43;4.70;;;5.80;1.00;;;;;;3562844;39;21172;-78
2021/04/03 01:56:12;;;;;;;8.93;3.60;;;5.90;1.00;;;;;;3563990;40;20462;-79
2021/04/03 01:58:39;;;;;;;9.87;3.77;;;5.90;99.90;;;;;;3561141;40;20494;-79
2021/04/03 02:01:06;;;;;;;11.23;3.97;;;5.90;1.00;;;;;;3573745;39;20418;-79
2021/04/03 02:03:33;;;;;;;8.83;3.07;;;5.80;1.00;;;;;;3562334;40;20940;-77
2021/04/03 02:06:02;;;;;;;11.30;3.93;;;5.80;1.00;;;;;;3563697;39;20609;-78
2021/04/03 02:08:29;;;;;;;15.43;4.40;;;5.70;1.00;;;;;;3567013;40;20504;-80
2021/04/03 02:11:02;;;;;;;8.30;3.17;;;5.80;1.00;;;;;;3560268;40;20728;-78
2021/04/03 02:13:31;;;;;;;13.37;3.53;;;5.80;99.90;;;;;;3578822;40;20417;-79
2021/04/03 02:16:00;;;;;;;7.07;3.47;;;5.80;99.90;;;;;;3558616;40;20580;-78
2021/04/03 02:18:31;;;;;;;8.37;3.47;;;5.80;99.90;;;;;;3575738;40;20466;-80
2021/04/03 02:21:05;;;;;;;11.60;3.70;;;5.80;99.90;;;;;;3570000;40;21334;-79
2021/04/03 02:23:37;;;;;;;12.63;3.87;;;5.80;99.90;;;;;;3569997;40;20445;-80
2021/04/03 02:26:04;;;;;;;15.67;3.70;;;5.70;99.90;;;;;;3561561;40;20455;-80
2021/04/03 02:28:30;;;;;;;11.77;4.13;;;5.70;99.90;;;;;;3570922;40;20434;-80
2021/04/03 02:30:57;;;;;;;7.10;2.87;;;5.60;99.90;;;;;;3578310;40;21354;-81
2021/04/03 02:33:23;;;;;;;12.23;3.57;;;5.60;99.90;;;;;;3569320;40;20535;-79
2021/04/03 02:35:50;;;;;;;9.80;3.67;;;5.60;99.90;;;;;;3565712;40;20531;-79
2021/04/03 02:38:17;;;;;;;6.07;2.87;;;5.80;99.90;;;;;;3564592;40;20413;-80
2021/04/03 02:40:44;;;;;;;6.60;2.97;;;5.90;99.90;;;;;;3573676;40;20422;-80
2021/04/03 02:43:33;;;;;;;13.30;3.60;;;5.80;99.90;;;;;;3570273;40;20556;-79
2021/04/03 02:46:14;;;;;;;14.00;3.20;;;5.70;99.90;;;;;;3573371;40;20423;-79
2021/04/03 02:48:47;;;;;;;16.13;4.53;;;5.80;99.90;;;;;;3580937;39;20439;-80
2021/04/03 02:51:20;;;;;;;12.47;5.53;;;5.70;99.90;;;;;;3572226;40;20468;-80
2021/04/03 02:54:10;;;;;;;5.47;3.33;;;5.70;99.90;;;;;;3580501;39;20438;-80
2021/04/03 02:56:43;;;;;;;17.67;3.53;;;5.70;99.90;;;;;;3530585;40;20575;-79
2021/04/03 02:59:19;;;;;;;9.77;3.30;;;5.70;99.90;;;;;;3530970;40;20438;-80
2021/04/03 03:01:48;;;;;;;11.03;4.83;;;5.70;99.90;;;;;;3527190;40;22502;-79
2021/04/03 03:04:16;;;;;;;11.20;3.90;;;5.70;99.90;;;;;;3527278;40;20533;-79
2021/04/03 03:06:42;;;;;;;15.73;4.37;;;5.80;99.90;;;;;;3523566;40;20529;-79
2021/04/03 03:09:08;;;;;;;9.63;3.40;;;5.80;99.90;;;;;;3524725;40;20456;-80
2021/04/03 03:11:37;;;;;;;11.53;3.37;;;5.70;99.90;;;;;;3517144;40;20465;-79
2021/04/03 03:14:04;;;;;;;10.93;4.10;;;5.70;99.90;;;;;;3524523;40;21149;-79
2021/04/03 03:16:31;;;;;;;7.27;4.27;;;5.60;1.00;;;;;;3516425;40;20495;-79
2021/04/03 03:18:57;;;;;;;19.83;6.23;;;5.60;1.00;;;;;;3524208;40;20427;-79
2021/04/03 03:21:24;;;;;;;20.67;4.00;;;5.70;99.90;;;;;;3515280;40;20481;-80
2021/04/03 03:23:50;;;;;;;6.10;3.70;;;5.70;99.90;;;;;;3525491;40;20402;-80
2021/04/03 03:26:15;;;;;;;12.80;3.30;;;5.70;99.90;;;;;;3517292;40;20990;-79
2021/04/03 03:28:42;;;;;;;13.57;3.37;;;5.60;99.90;;;;;;3517152;40;20421;-80
2021/04/03 03:31:08;;;;;;;11.77;5.13;;;5.60;1.00;;;;;;3525909;40;20481;-80
2021/04/03 03:33:34;;;;;;;8.97;3.50;;;5.60;1.00;;;;;;3549453;39;20427;-79
2021/04/03 03:36:01;;;;;;;8.87;3.70;;;5.70;1.00;;;;;;3574157;40;20976;-79
2021/04/03 03:38:28;;;;;;;14.20;4.03;;;5.70;99.90;;;;;;3578878;40;20450;-79
2021/04/03 03:40:55;;;;;;;21.37;4.07;;;5.70;99.90;;;;;;3573299;39;20414;-79
2021/04/03 03:43:22;;;;;;;8.77;5.93;;;5.70;99.90;;;;;;3572028;40;20763;-80
2021/04/03 03:45:48;;;;;;;8.40;3.00;;;5.60;99.90;;;;;;3578763;39;20525;-79
2021/04/03 03:48:14;;;;;;;10.03;4.20;;;5.60;99.90;;;;;;3570516;39;20511;-80
2021/04/03 03:50:41;;;;;;;12.63;3.27;;;5.60;99.90;;;;;;3572903;40;20448;-80
2021/04/03 03:53:08;;;;;;;18.80;4.57;;;5.60;99.90;;;;;;3569761;40;20541;-79
2021/04/03 03:55:34;;;;;;;12.50;3.97;;;5.70;1.00;;;;;;3563158;39;20447;-80
2021/04/03 03:58:00;;;;;;;14.10;4.07;;;5.60;99.90;;;;;;3570741;39;20476;-81
2021/04/03 04:00:26;;;;;;;9.90;4.10;;;5.60;1.00;;;;;;3580988;39;20539;-79
2021/04/03 04:02:51;;;;;;;9.60;3.77;;;5.50;1.00;;;;;;3563644;40;20441;-79
2021/04/03 04:05:17;;;;;;;10.83;4.93;;;5.50;1.00;;;;;;3572349;39;20849;-80
2021/04/03 04:07:43;;;;;;;10.83;3.87;;;5.50;1.00;;;;;;3559348;40;20582;-79
2021/04/03 04:10:12;;;;;;;25.40;5.43;;;5.50;1.00;;;;;;3564192;39;20441;-80
2021/04/03 04:12:38;;;;;;;15.87;4.57;;;5.50;1.00;;;;;;3572889;39;20237;-79
2021/04/03 04:15:27;;;;;;;15.63;3.30;;;5.50;1.00;;;;;;3563939;39;20460;-78
2021/04/03 04:17:53;;;;;;;15.10;4.83;;;5.50;1.00;;;;;;3524577;40;20461;-80
2021/04/03 04:20:19;;;;;;;13.03;4.00;;;5.50;1.00;;;;;;3534999;40;21050;-79
2021/04/03 04:22:45;;;;;;;8.83;2.83;;;5.40;1.00;;;;;;3523415;40;20448;-79
2021/04/03 04:25:12;;;;;;;12.43;3.90;;;5.30;1.00;;;;;;3517664;40;20503;-80
2021/04/03 04:27:37;;;;;;;8.80;3.67;;;5.40;1.00;;;;;;3509151;40;20271;-80
2021/04/03 04:30:09;;;;;;;17.23;4.83;;;5.30;1.00;;;;;;3534089;40;20925;-79
2021/04/03 04:32:42;;;;;;;14.90;4.67;;;5.30;1.00;;;;;;3524997;40;20617;-80
2021/04/03 04:35:10;;;;;;;16.20;4.07;;;5.20;1.00;;;;;;3525029;40;22711;-79
2021/04/03 04:37:37;;;;;;;12.93;4.50;;;5.10;1.00;;;;;;3531278;40;21013;-79
2021/04/03 04:40:09;;;;;;;9.07;3.37;;;5.00;1.00;;;;;;3524593;40;20639;-79
2021/04/03 04:42:35;;;;;;;19.40;4.60;;;5.00;58.50;;;;;;3532407;40;20445;-80
2021/04/03 04:45:01;;;;;;;19.13;4.37;;;4.90;99.90;;;;;;3517887;40;20430;-79
2021/04/03 04:47:26;;;;;;;13.40;4.60;;;4.80;99.90;;;;;;3526165;40;20456;-79
2021/04/03 04:49:53;;;;;;;9.30;3.80;;;4.70;99.90;;;;;;3526099;40;20240;-78
2021/04/03 04:52:18;;;;;;;11.20;4.33;;;4.50;99.90;;;;;;3524806;40;20332;-80
2021/04/03 04:54:44;;;;;;;12.67;3.80;;;4.40;99.90;;;;;;3532037;40;20589;-80
2021/04/03 04:57:10;;;;;;;12.27;4.87;;;4.20;99.90;;;;;;3556738;39;20253;-79
2021/04/03 04:59:35;;;;;;;20.47;5.83;;;4.20;99.90;;;;;;3566644;40;20250;-80
2021/04/03 05:02:02;;;;;;;9.10;3.93;;;4.10;99.90;;;;;;3564887;40;20280;-80
2021/04/03 05:04:27;;;;;;;12.67;4.20;;;4.00;99.90;;;;;;3565923;39;20234;-80
2021/04/03 05:06:53;;;;;;;16.50;4.50;;;3.90;99.90;;;;;;3550464;40;20460;-79
2021/04/03 05:09:19;;;;;;;11.43;4.60;;;3.70;99.90;;;;;;3557729;40;20235;-78
2021/04/03 05:11:44;;;;;;;15.30;5.23;;;3.80;99.90;;;;;;3565521;40;20294;-79
2021/04/03 05:14:10;;;;;;;9.93;5.67;;;3.70;99.90;;;;;;3558425;40;20260;-79
2021/04/03 05:16:36;;;;;;;21.90;5.77;;;3.70;99.90;;;;;;3555967;40;20286;-80
2021/04/03 05:19:02;;;;;;;18.97;4.73;;;3.60;99.90;;;;;;3558249;39;20230;-80
2021/04/03 05:21:28;;;;;;;14.97;4.40;;;3.60;99.90;;;;;;3565459;40;20354;-79
2021/04/03 05:23:53;;;;;;;19.10;4.80;;;3.70;99.90;;;;;;3563493;40;20462;-79
2021/04/03 05:26:19;;;;;;;22.37;5.13;;;3.60;99.90;;;;;;3557772;39;20238;-79
2021/04/03 05:28:45;;;;;;;18.30;4.07;;;3.50;99.90;;;;;;3539751;40;20256;-78
2021/04/03 05:31:12;;;;;;;13.33;5.37;;;3.50;99.90;;;;;;3565343;40;20590;-79
2021/04/03 05:33:37;;;;;;;15.03;5.33;;;3.60;99.90;;;;;;3570571;39;20249;-79
2021/04/03 05:36:05;;;;;;;13.53;4.90;;;3.80;99.90;;;;;;3551462;40;20434;-79
2021/04/03 05:38:31;;;;;;;13.90;4.90;;;4.00;99.90;;;;;;3562814;40;20230;-79
2021/04/03 05:40:57;;;;;;;17.70;6.27;;;4.20;99.90;;;;;;3558100;40;20453;-80
2021/04/03 05:43:23;;;;;;;10.30;4.30;;;4.40;99.90;;;;;;3555224;40;21072;-80
2021/04/03 05:45:56;;;;;;;24.50;5.73;;;4.40;99.90;;;;;;3577776;40;20488;-80
2021/04/03 05:48:22;;;;;;;16.93;4.57;;;4.60;99.90;;;;;;3572283;40;20428;-79
2021/04/03 05:50:53;;;;;;;18.00;5.00;;;4.70;99.90;;;;;;3558467;40;20472;-78
2021/04/03 05:53:20;;;;;;;16.67;4.77;;;4.80;99.90;;;;;;3555464;40;21822;-79
2021/04/03 05:55:50;;;;;;;13.90;6.80;;;5.30;99.90;;;;;;3558301;40;20531;-80
2021/04/03 05:58:15;;;;;;;11.83;4.30;;;5.50;99.90;;;;;;3572524;40;20833;-80
2021/04/03 06:00:41;;;;;;;19.43;5.10;;;5.90;48.00;;;;;;3555741;40;20470;-79
2021/04/03 06:03:07;;;;;;;12.37;5.20;;;5.90;1.00;;;;;;3549090;40;20325;-79
2021/04/03 06:05:33;;;;;;;17.30;4.10;;;6.20;1.00;;;;;;3573916;39;20281;-80
2021/04/03 06:07:59;;;;;;;10.87;6.00;;;6.70;1.00;;;;;;3554380;40;20652;-79
2021/04/03 06:10:24;;;;;;;21.57;6.43;;;6.80;99.90;;;;;;3549127;40;20418;-79
2021/04/03 06:12:50;;;;;;;15.20;5.80;;;6.70;99.90;;;;;;3565104;40;20326;-79
2021/04/03 06:15:35;;;;;;;8.20;5.00;;;6.50;99.90;;;;;;3566646;40;20222;-79
2021/04/03 06:18:08;;;;;;;34.30;6.93;;;6.70;99.90;;;;;;3566024;40;20528;-79
2021/04/03 06:20:36;;;;;;;20.43;6.13;;;6.70;99.90;;;;;;3566610;40;20493;-78
2021/04/03 06:23:03;;;;;;;11.30;5.63;;;6.80;99.90;;;;;;3573450;40;20441;-78
2021/04/03 06:25:29;;;;;;;12.03;6.13;;;7.20;99.90;;;;;;3566037;40;20511;-80
2021/04/03 06:28:09;;;;;;;20.13;6.40;;;7.30;1.00;;;;;;3557120;40;20435;-79
2021/04/03 06:30:36;;;;;;;14.10;5.87;;;7.60;1.00;;;;;;3573836;40;20509;-79
2021/04/03 06:33:16;;;;;;;14.90;6.00;;;8.40;99.90;;;;;;3573525;40;20455;-80
2021/04/03 06:35:43;;;;;;;14.73;5.70;;;9.10;1.00;;;;;;3557397;40;20431;-80
2021/04/03 06:38:24;;;;;;;15.57;5.83;;;9.10;99.90;;;;;;3557285;40;20459;-80
2021/04/03 06:40:51;;;;;;;15.47;6.23;;;9.30;99.90;;;;;;3571923;40;20411;-79
2021/04/03 06:43:18;;;;;;;14.33;5.03;;;9.00;99.90;;;;;;3549303;40;21836;-80
2021/04/03 06:45:44;;;;;;;20.30;5.50;;;9.30;99.90;;;;;;3576503;40;20473;-79
2021/04/03 06:48:12;;;;;;;17.10;5.60;;;9.70;99.90;;;;;;3545098;40;20430;-79
2021/04/03 06:50:45;;;;;;;18.13;5.00;;;11.50;24.00;;;;;;3554685;40;20742;-79
2021/04/03 06:53:15;;;;;;;17.73;5.20;;;12.30;99.90;;;;;;3554348;40;20534;-80
2021/04/03 06:55:47;;;;;;;14.50;4.40;;;12.90;99.90;;;;;;3562858;40;20474;-79
2021/04/03 06:58:14;;;;;;;18.37;6.30;;;13.00;30.70;;;;;;3573587;40;20549;-80
2021/04/03 07:00:40;;;;;;;19.60;6.13;;;12.00;1.50;;;;;;3554228;40;20847;-80
2021/04/03 07:03:17;;;;;;;28.90;7.07;;;11.30;29.30;;;;;;3562162;40;20463;-80
2021/04/03 07:05:45;;;;;;;24.17;6.80;;;10.50;99.90;;;;;;3565369;40;20433;-80
2021/04/03 07:08:10;;;;;;;20.40;5.57;;;9.60;1.00;;;;;;3555211;32;20455;-80
2021/04/03 07:10:38;;;;;;;11.87;5.30;;;9.60;99.90;;;;;;3562919;40;20574;-79
2021/04/03 07:13:06;;;;;;;13.97;5.00;;;10.00;1.00;;;;;;3563688;40;20341;-79
2021/04/03 07:15:32;;;;;;;10.27;4.97;;;10.30;1.00;;;;;;3564101;40;21639;-79
2021/04/03 07:17:58;;;;;;;9.77;4.30;;;11.30;99.90;;;;;;3554205;40;20701;-79
2021/04/03 07:20:30;;;;;;;13.83;5.10;;;12.90;45.40;;;;;;3563188;40;20769;-79
2021/04/03 07:22:59;;;;;;;17.43;4.87;;;14.50;1.00;;;;;;3545765;40;21307;-79
2021/04/03 07:25:33;;;;;;;9.60;6.40;;;15.50;1.00;;;;;;3566692;39;20479;-80
2021/04/03 07:27:58;;;;;;;10.33;5.00;;;14.20;1.00;;;;;;3566283;39;20799;-81
2021/04/03 07:30:38;;;;;;;12.00;4.30;;;14.90;1.00;;;;;;3554936;40;20436;-79
2021/04/03 07:33:22;;;;;;;10.93;5.30;;;13.80;1.00;;;;;;3557832;40;20332;-80
2021/04/03 07:35:57;;;;;;;14.03;5.43;;;13.80;1.00;;;;;;3566910;40;20443;-79
2021/04/03 07:38:28;;;;;;;15.73;6.93;;;13.70;1.00;;;;;;3564960;40;20478;-79
2021/04/03 07:40:57;;;;;;;12.87;7.10;;;11.50;1.00;;;;;;3575092;39;20555;-80
2021/04/03 07:43:34;;;;;;;10.90;6.80;;;11.30;1.00;;;;;;3566182;39;20439;-80
2021/04/03 07:46:28;;;;;;;13.53;6.30;;;11.90;1.00;;;;;;3559083;40;20444;-80
2021/04/03 07:48:58;;;;;;;18.17;8.37;;;12.80;1.00;;;;;;3562834;40;20548;-80
2021/04/03 07:51:23;;;;;;;11.80;7.60;;;12.60;1.00;;;;;;3563644;40;20466;-80
2021/04/03 07:53:51;;;;;;;11.20;6.90;;;14.20;1.00;;;;;;3574460;40;20518;-80
2021/04/03 07:56:20;;;;;;;19.47;6.70;;;16.30;1.00;;;;;;3566053;40;20708;-80
2021/04/03 07:58:57;;;;;;;19.50;8.57;;;17.30;1.00;;;;;;3574415;40;20560;-80
2021/04/03 08:01:28;;;;;;;21.60;8.47;;;16.40;1.00;;;;;;3555156;40;20422;-79
2021/04/03 08:03:55;;;;;;;17.93;9.80;;;13.90;1.00;;;;;;3565451;39;20466;-79
2021/04/03 08:06:30;;;;;;;18.13;8.07;;;13.10;1.00;;;;;;3575000;39;21130;-81
2021/04/03 08:08:56;;;;;;;20.93;8.00;;;12.70;1.00;;;;;;3557495;40;21929;-81
2021/04/03 08:11:22;;;;;;;19.30;8.80;;;11.90;1.00;;;;;;3559506;40;20427;-81
2021/04/03 08:13:54;;;;;;;23.73;9.17;;;12.40;1.00;;;;;;3565034;40;20445;-81
2021/04/03 08:16:22;;;;;;;23.73;9.13;;;12.40;1.00;;;;;;3575153;39;20762;-80
2021/04/03 08:18:50;;;;;;;18.77;9.00;;;13.60;1.00;;;;;;3576285;39;21680;-80
2021/04/03 08:21:16;;;;;;;36.93;9.57;;;13.40;1.00;;;;;;3566062;40;20462;-79
2021/04/03 08:23:45;;;;;;;25.57;8.17;;;12.80;1.00;;;;;;3566224;40;20485;-80
2021/04/03 08:26:12;;;;;;;23.57;9.50;;;12.50;1.00;;;;;;3566423;39;20473;-80
2021/04/03 08:28:38;;;;;;;16.27;8.97;;;12.30;1.00;;;;;;3575390;39;20439;-80
2021/04/03 08:31:46;;;;;;;13.80;8.17;;;12.10;1.00;;;;;;3556243;40;20435;-80
2021/04/03 08:34:12;;;;;;;15.77;11.00;;;11.70;1.00;;;;;;3530341;40;20236;-79
2021/04/03 08:36:38;;;;;;;24.00;13.10;;;11.90;1.00;;;;;;3540264;40;20516;-80
2021/04/03 08:39:10;;;;;;;21.60;10.23;;;13.00;1.00;;;;;;3526959;40;20225;-80
2021/04/03 08:41:39;;;;;;;22.80;8.73;;;13.20;1.00;;;;;;3539132;40;20260;-79
2021/04/03 08:44:26;;;;;;;16.33;9.07;;;12.80;1.00;;;;;;3515479;40;20486;-80
2021/04/03 08:46:57;;;;;;;16.50;8.03;;;12.20;1.00;;;;;;3524577;40;20451;-79
2021/04/03 08:49:34;;;;;;;15.10;9.83;;;11.10;1.00;;;;;;3522385;40;20637;-80
2021/04/03 08:52:00;;;;;;;18.33;10.00;;;11.20;1.00;;;;;;3517033;40;20503;-81
2021/04/03 08:54:38;;;;;;;23.33;9.00;;;11.90;1.00;;;;;;3533825;40;20445;-80
2021/04/03 08:57:22;;;;;;;17.57;9.73;;;11.60;1.00;;;;;;3533238;40;20817;-80
2021/04/03 08:59:48;;;;;;;21.80;10.70;;;10.60;99.90;;;;;;3523745;40;20466;-80
2021/04/03 09:02:14;;;;;;;22.77;8.90;;;11.10;99.90;;;;;;3533963;40;20417;-79
2021/04/03 09:04:40;;;;;;;16.97;8.77;;;11.10;99.90;;;;;;3540281;40;20439;-80
2021/04/03 09:07:05;;;;;;;23.00;8.27;;;11.30;99.90;;;;;;3556041;40;21026;-80
2021/04/03 09:09:31;;;;;;;17.37;10.10;;;11.70;21.20;;;;;;3565842;40;20461;-79
2021/04/03 09:12:03;;;;;;;19.53;9.37;;;11.50;1.00;;;;;;3549312;40;21920;-80
2021/04/03 09:14:40;;;;;;;19.13;9.53;;;12.10;1.00;;;;;;3573635;39;20590;-80
2021/04/03 09:17:21;;;;;;;31.13;10.37;;;12.30;1.00;;;;;;3554784;40;20453;-80
2021/04/03 09:19:48;;;;;;;20.70;10.40;;;12.20;1.00;;;;;;3563908;40;20429;-84
2021/04/03 09:22:16;;;;;;;20.43;7.77;;;12.30;1.00;;;;;;3573603;39;20487;-80
2021/04/03 09:24:44;;;;;;;17.37;7.23;;;13.10;1.00;;;;;;3563862;40;20481;-81
2021/04/03 09:27:19;;;;;;;22.97;8.60;;;13.50;1.00;;;;;;3564854;39;20440;-81
2021/04/03 09:29:50;;;;;;;20.90;9.20;;;13.40;1.00;;;;;;3556532;40;20433;-80
2021/04/03 09:32:17;;;;;;;17.17;8.40;;;12.30;1.00;;;;;;3561682;40;20537;-80
2021/04/03 09:34:43;;;;;;;22.13;10.10;;;12.50;1.00;;;;;;3566115;40;20478;-79
2021/04/03 09:37:23;;;;;;;17.07;10.07;;;12.80;1.00;;;;;;3546699;39;23158;-80
2021/04/03 09:39:54;;;;;;;18.30;8.93;;;14.80;1.00;;;;;;3562539;40;20411;-79
2021/04/03 09:42:25;;;;;;;21.13;8.90;;;16.70;1.00;;;;;;3562800;39;20451;-78
2021/04/03 09:44:54;;;;;;;22.43;11.47;;;15.70;1.00;;;;;;3571260;40;21096;-79
2021/04/03 09:47:20;;;;;;;24.67;9.33;;;14.90;1.00;;;;;;3547489;40;20460;-79
2021/04/03 09:49:46;;;;;;;20.47;12.07;;;14.60;1.00;;;;;;3549186;40;20429;-79
2021/04/03 09:52:16;;;;;;;33.97;12.87;;;14.90;1.00;;;;;;3554056;39;20482;-79
2021/04/03 09:54:46;;;;;;;17.20;10.50;;;17.00;1.00;;;;;;3569105;39;20292;-80
2021/04/03 09:57:13;;;;;;;15.10;9.23;;;19.80;1.00;;;;;;3563415;40;20439;-78
2021/04/03 09:59:39;;;;;;;22.40;10.27;;;18.90;1.00;;;;;;3565283;40;20542;-79
2021/04/03 10:02:05;;;;;;;27.03;10.73;;;16.80;1.00;;;;;;3564553;40;21006;-79
2021/04/03 10:04:33;;;;;;;26.43;10.83;;;15.90;1.00;;;;;;3548903;40;20458;-80
2021/04/03 10:06:59;;;;;;;17.70;10.97;;;15.00;1.00;;;;;;3562131;40;20514;-80
2021/04/03 10:09:25;;;;;;;20.00;10.57;;;14.00;1.00;;;;;;3563232;40;20463;-79
2021/04/03 10:11:55;;;;;;;21.27;9.37;;;14.30;1.00;;;;;;3568403;40;20807;-80
2021/04/03 10:14:22;;;;;;;26.33;10.53;;;14.20;1.00;;;;;;3562351;40;20447;-80
2021/04/03 10:16:48;;;;;;;20.40;10.17;;;13.40;1.00;;;;;;3571598;40;20540;-80
2021/04/03 10:19:15;;;;;;;24.27;13.40;;;12.30;1.00;;;;;;3556433;40;20431;-79
2021/04/03 10:21:41;;;;;;;23.40;10.20;;;11.20;27.00;;;;;;3563805;40;20451;-79
2021/04/03 10:24:08;;;;;;;22.23;10.90;;;13.40;1.00;;;;;;3561416;40;20498;-80
2021/04/03 10:26:33;;;;;;;16.60;11.20;;;15.10;1.00;;;;;;3562156;40;20303;-79
2021/04/03 10:28:59;;;;;;;18.93;10.53;;;12.30;1.00;;;;;;3571467;40;20482;-79
2021/04/03 10:31:25;;;;;;;17.37;9.87;;;11.50;1.00;;;;;;3557393;40;20226;-79
2021/04/03 10:33:50;;;;;;;23.30;11.53;;;10.70;99.90;;;;;;3562544;40;20258;-78
2021/04/03 10:36:16;;;;;;;22.37;10.73;;;12.80;1.00;;;;;;3556216;40;20286;-78
2021/04/03 10:38:47;;;;;;;19.50;11.70;;;14.70;1.00;;;;;;3570246;40;20254;-79
2021/04/03 10:41:13;;;;;;;20.50;11.50;;;16.60;1.00;;;;;;3572567;40;20597;-79
2021/04/03 10:43:40;;;;;;;21.83;11.57;;;17.60;1.00;;;;;;3559211;40;21255;-79
2021/04/03 10:46:08;;;;;;;16.67;9.53;;;17.50;1.00;;;;;;3565609;40;20411;-79
2021/04/03 10:48:35;;;;;;;20.13;11.70;;;18.30;1.00;;;;;;3563308;40;20869;-78
2021/04/03 10:51:02;;;;;;;15.33;9.03;;;20.00;1.00;;;;;;3561250;40;20462;-78
2021/04/03 10:53:28;;;;;;;21.40;10.13;;;20.00;1.00;;;;;;3557993;40;20575;-79
2021/04/03 10:55:54;;;;;;;22.30;10.40;;;21.20;1.00;;;;;;3571513;40;20451;-78
2021/04/03 10:58:20;;;;;;;23.47;11.57;;;21.00;1.00;;;;;;3570180;40;20478;-78
2021/04/03 11:00:46;;;;;;;18.63;11.00;;;20.60;1.00;;;;;;3564576;40;20423;-79
2021/04/03 11:03:12;;;;;;;18.83;10.70;;;21.40;1.00;;;;;;3563328;40;20675;-79
2021/04/03 11:05:37;;;;;;;17.60;10.43;;;21.70;1.00;;;;;;3564368;40;20441;-78
2021/04/03 11:08:04;;;;;;;13.57;8.93;;;21.20;1.00;;;;;;3565496;40;21624;-79
2021/04/03 11:10:30;;;;;;;19.50;11.20;;;17.50;1.00;;;;;;3555637;40;20222;-79
2021/04/03 11:12:56;;;;;;;18.70;9.83;;;17.20;1.00;;;;;;3571045;39;20478;-79
2021/04/03 11:15:22;;;;;;;17.00;10.97;;;17.70;1.00;;;;;;3576251;39;20427;-79
2021/04/03 11:17:47;;;;;;;21.80;11.27;;;16.80;1.00;;;;;;3556360;39;20490;-80
2021/04/03 11:20:14;;;;;;;20.57;11.67;;;17.90;1.00;;;;;;3574621;39;20256;-80
2021/04/03 11:22:40;;;;;;;15.90;9.43;;;18.00;1.00;;;;;;3565277;40;20967;-79
2021/04/03 11:25:07;;;;;;;14.17;9.43;;;20.50;1.00;;;;;;3576522;39;20454;-79
2021/04/03 11:27:33;;;;;;;15.60;8.63;;;20.60;1.00;;;;;;3562311;40;20761;-80
2021/04/03 11:30:13;;;;;;;18.30;10.70;;;21.70;1.00;;;;;;3564946;40;21927;-80
2021/04/03 11:32:46;;;;;;;24.60;10.03;;;19.80;1.00;;;;;;3574539;39;20918;-79
2021/04/03 11:35:17;;;;;;;17.57;9.33;;;21.10;1.00;;;;;;3565049;40;20454;-79
2021/04/03 11:37:44;;;;;;;13.87;9.17;;;19.60;1.00;;;;;;3556993;40;21339;-80
2021/04/03 11:40:11;;;;;;;11.50;8.97;;;17.00;1.00;;;;;;3557358;40;20458;-80
2021/04/03 11:42:38;;;;;;;13.63;9.00;;;14.80;1.00;;;;;;3547355;39;20581;-79
2021/04/03 11:45:07;;;;;;;84.43;30.93;;;14.90;1.00;;;;;;3566026;40;21029;-78
2021/04/03 11:47:37;;;;;;;259.43;126.00;;;16.10;1.00;;;;;;3560686;40;20462;-79
2021/04/03 11:50:04;;;;;;;21.20;10.83;;;17.10;1.00;;;;;;3566697;40;20502;-78
2021/04/03 11:52:32;;;;;;;16.50;9.67;;;16.20;1.00;;;;;;3547878;40;20541;-82
2021/04/03 11:54:59;;;;;;;18.60;10.93;;;15.10;1.00;;;;;;3566600;40;20399;-79
2021/04/03 11:57:24;;;;;;;17.10;10.67;;;14.00;1.00;;;;;;3555193;39;20540;-79
2021/04/03 11:59:50;;;;;;;12.50;9.30;;;14.80;1.00;;;;;;3565411;39;20498;-79
2021/04/03 12:02:16;;;;;;;9.97;8.00;;;17.50;1.00;;;;;;3563822;40;20249;-78
2021/04/03 12:04:42;;;;;;;19.00;10.23;;;19.50;1.00;;;;;;3566614;40;20230;-79
2021/04/03 12:07:07;;;;;;;13.67;8.93;;;19.80;1.00;;;;;;3562411;40;20239;-81
2021/04/03 12:09:33;;;;;;;18.37;10.10;;;18.60;1.00;;;;;;3558737;40;20611;-77
2021/04/03 12:12:00;;;;;;;12.60;9.57;;;14.00;1.00;;;;;;3557302;39;20351;-80
2021/04/03 12:14:27;;;;;;;15.50;9.10;;;14.30;1.00;;;;;;3571451;40;20933;-78
2021/04/03 12:16:53;;;;;;;17.00;10.30;;;15.30;1.00;;;;;;3558438;40;20447;-80
2021/04/03 12:19:18;;;;;;;17.97;9.70;;;16.50;1.00;;;;;;3541908;40;20467;-80
2021/04/03 12:21:44;;;;;;;13.70;8.07;;;18.80;1.00;;;;;;3559974;40;20261;-80
2021/04/03 12:24:10;;;;;;;13.93;8.40;;;19.30;1.00;;;;;;3558492;40;20264;-80
2021/04/03 12:26:36;;;;;;;14.17;8.00;;;18.70;1.00;;;;;;3567366;40;20505;-81
2021/04/03 12:29:02;;;;;;;13.97;8.97;;;16.60;1.00;;;;;;3549998;40;20228;-80
2021/04/03 12:31:46;;;;;;;12.80;8.43;;;14.40;1.00;;;;;;3560274;40;20229;-80
2021/04/03 12:34:12;;;;;;;22.90;8.33;;;13.90;1.00;;;;;;3568119;40;20364;-82
2021/04/03 12:36:37;;;;;;;11.90;6.63;;;14.90;1.00;;;;;;3561458;40;20557;-81
2021/04/03 12:39:03;;;;;;;15.90;7.70;;;14.40;1.00;;;;;;3552314;40;20242;-81
2021/04/03 12:41:29;;;;;;;10.10;5.30;;;14.80;1.00;;;;;;3563338;40;20324;-81
2021/04/03 12:43:55;;;;;;;12.60;6.73;;;15.30;1.00;;;;;;3552094;40;20541;-81
2021/04/03 12:46:20;;;;;;;11.43;7.47;;;16.30;1.00;;;;;;3560955;40;20230;-82
2021/04/03 12:48:46;;;;;;;12.30;9.00;;;17.00;1.00;;;;;;3568576;40;20226;-80
2021/04/03 12:51:12;;;;;;;15.53;8.97;;;17.00;1.00;;;;;;3560716;40;20505;-81
2021/04/03 12:53:37;;;;;;;11.63;7.10;;;16.40;1.00;;;;;;3557752;40;21818;-79
2021/04/03 12:56:04;;;;;;;10.93;8.47;;;16.40;1.00;;;;;;3559085;40;20246;-80
2021/04/03 12:58:29;;;;;;;11.07;7.27;;;15.60;1.00;;;;;;3556868;40;20458;-79